Time;durP1;ratioP1;P1;durP2;ratioP2;P2;SDS_P1;SDS_P2;PMS_P1;PMS_P2;Temp;Humidity;BMP_temperature;BMP_pressure;BME280_temperature;BME280_humidity;BME280_pressure;Samples;Min_cycle;Max_cycle;Signal;HPM_P1;HPM_P2
2023/09/01 00:00:09;;;;;;;3.70;1.77;;;20.80;92.30;;;;;;5057349;28;20130;-68
2023/09/01 00:02:35;;;;;;;5.45;1.60;;;20.70;92.30;;;;;;5069165;28;20139;-66
2023/09/01 00:05:02;;;;;;;3.35;1.50;;;;;;;;;;5075955;28;20049;-70
2023/09/01 00:07:28;;;;;;;4.72;1.50;;;20.80;92.40;;;;;;5078583;28;20048;-71
2023/09/01 00:09:54;;;;;;;4.82;1.75;;;20.70;92.40;;;;;;5057173;28;20075;-69
2023/09/01 00:12:20;;;;;;;3.65;1.50;;;20.60;92.60;;;;;;5081171;28;20044;-71
2023/09/01 00:14:46;;;;;;;3.05;1.50;;;20.70;92.30;;;;;;5064883;28;20123;-71
2023/09/01 00:17:12;;;;;;;3.47;1.40;;;20.70;91.20;;;;;;5090348;28;20056;-67
2023/09/01 00:19:39;;;;;;;3.55;1.58;;;20.80;92.30;;;;;;5075828;28;20371;-66
2023/09/01 00:22:05;;;;;;;3.08;1.58;;;20.80;92.30;;;;;;5061276;28;20409;-69
2023/09/01 00:24:32;;;;;;;4.40;1.48;;;20.80;92.30;;;;;;5075607;28;20047;-68
2023/09/01 00:27:01;;;;;;;3.53;1.52;;;20.80;92.80;;;;;;5071891;28;20044;-71
2023/09/01 00:29:27;;;;;;;2.45;1.20;;;20.70;92.70;;;;;;5040323;28;20515;-65
2023/09/01 00:31:53;;;;;;;4.53;1.50;;;20.70;91.50;;;;;;5064176;28;20067;-69
2023/09/01 00:34:18;;;;;;;3.05;1.40;;;20.80;92.20;;;;;;5086935;28;20120;-67
2023/09/01 00:36:44;;;;;;;3.65;1.50;;;20.80;92.20;;;;;;5057518;28;20394;-69
2023/09/01 00:39:10;;;;;;;3.50;1.42;;;20.70;91.10;;;;;;5074333;28;20501;-67
2023/09/01 00:41:36;;;;;;;3.65;1.40;;;20.70;92.20;;;;;;5039616;28;20048;-65
2023/09/01 00:44:03;;;;;;;3.08;1.50;;;20.80;92.30;;;;;;5073975;28;20559;-66
2023/09/01 00:46:30;;;;;;;3.47;1.40;;;20.80;91.10;;;;;;5060374;28;20173;-67
2023/09/01 00:48:57;;;;;;;6.15;1.45;;;20.80;92.50;;;;;;5026311;28;20436;-68
2023/09/01 00:51:23;;;;;;;3.30;1.33;;;20.60;92.30;;;;;;5074408;28;20098;-68
2023/09/01 00:53:49;;;;;;;3.92;1.70;;;20.60;92.20;;;;;;5067679;28;20051;-63
2023/09/01 00:56:15;;;;;;;3.17;1.50;;;20.70;92.30;;;;;;5074461;28;20131;-68
2023/09/01 00:58:40;;;;;;;2.88;1.25;;;20.70;92.30;;;;;;5092514;28;20119;-65
2023/09/01 01:01:06;;;;;;;4.28;1.42;;;20.50;92.40;;;;;;5093641;28;20079;-65
2023/09/01 01:03:33;;;;;;;3.17;1.30;;;20.70;92.30;;;;;;5090030;28;20129;-66
2023/09/01 01:06:13;;;;;;;2.47;1.30;;;20.70;92.30;;;;;;5093386;28;20131;-65
2023/09/01 01:08:45;;;;;;;4.05;1.52;;;20.60;92.30;;;;;;5049511;28;20054;-65
2023/09/01 01:11:11;;;;;;;4.10;1.40;;;20.60;92.20;;;;;;5065660;28;20056;-66
2023/09/01 01:13:40;;;;;;;2.42;1.23;;;20.60;92.50;;;;;;5081779;28;20053;-64
2023/09/01 01:16:06;;;;;;;4.50;1.30;;;20.60;92.20;;;;;;5055973;28;20047;-65
2023/09/01 01:18:32;;;;;;;2.97;1.40;;;20.70;92.30;;;;;;5061924;28;20032;-67
2023/09/01 01:21:11;;;;;;;4.20;1.58;;;20.60;92.40;;;;;;5048521;28;20823;-64
2023/09/01 01:23:37;;;;;;;3.08;1.40;;;20.60;92.20;;;;;;5040336;28;20044;-64
2023/09/01 01:26:05;;;;;;;2.78;1.38;;;20.50;92.50;;;;;;5055869;28;20049;-65
2023/09/01 01:28:30;;;;;;;4.15;1.60;;;20.70;92.30;;;;;;5056832;28;20053;-63
2023/09/01 01:30:56;;;;;;;4.07;1.40;;;20.60;92.20;;;;;;5079354;28;20044;-67
2023/09/01 01:33:37;;;;;;;4.15;1.35;;;20.70;92.30;;;;;;5063462;28;20381;-71
2023/09/01 01:36:05;;;;;;;2.28;1.20;;;20.80;92.70;;;;;;5055885;28;20379;-68
2023/09/01 01:38:32;;;;;;;3.17;1.38;;;20.70;92.30;;;;;;5079626;28;20119;-66
2023/09/01 01:41:19;;;;;;;3.42;1.40;;;20.70;92.30;;;;;;5073644;28;20425;-70
2023/09/01 01:43:45;;;;;;;3.55;1.33;;;20.70;92.30;;;;;;5055677;28;20442;-72
2023/09/01 01:46:11;;;;;;;3.78;1.50;;;20.90;91.30;;;;;;5071818;28;20083;-67
2023/09/01 01:48:37;;;;;;;3.40;1.50;;;20.70;92.30;;;;;;5089001;28;20055;-71
2023/09/01 01:51:05;;;;;;;3.75;1.40;;;20.60;92.30;;;;;;5067994;28;20482;-69
2023/09/01 01:53:35;;;;;;;3.90;1.55;;;20.40;91.10;;;;;;5084559;28;20044;-67
2023/09/01 01:56:03;;;;;;;2.15;1.02;;;20.60;91.40;;;;;;5093536;28;20052;-71
2023/09/01 01:58:30;;;;;;;2.28;1.05;;;20.50;92.30;;;;;;5085132;28;20032;-69
2023/09/01 02:00:55;;;;;;;3.67;1.52;;;20.60;92.30;;;;;;5072922;28;20105;-71
2023/09/01 02:03:21;;;;;;;2.40;1.30;;;20.50;92.20;;;;;;5089823;28;20060;-71
2023/09/01 02:05:47;;;;;;;4.22;1.60;;;20.50;92.20;;;;;;5091827;28;20079;-69
2023/09/01 02:08:13;;;;;;;3.65;1.27;;;20.50;91.20;;;;;;5085401;28;20108;-70
2023/09/01 02:10:39;;;;;;;4.03;1.48;;;20.40;92.20;;;;;;5072920;28;20083;-71
2023/09/01 02:13:04;;;;;;;2.90;1.23;;;20.60;92.40;;;;;;5073104;28;20043;-72
2023/09/01 02:15:31;;;;;;;4.03;1.58;;;20.50;92.30;;;;;;5081356;28;20048;-72
2023/09/01 02:17:57;;;;;;;4.07;1.40;;;;;;;;;;5054291;28;20053;-70
2023/09/01 02:20:24;;;;;;;2.83;1.48;;;20.60;92.40;;;;;;5072867;28;20036;-68
2023/09/01 02:22:50;;;;;;;4.75;1.48;;;20.50;92.30;;;;;;5086409;28;20036;-71
2023/09/01 02:25:16;;;;;;;2.30;1.20;;;20.40;92.20;;;;;;5091208;28;20113;-70
2023/09/01 02:27:42;;;;;;;3.17;1.30;;;20.40;91.30;;;;;;5071636;28;20457;-69
2023/09/01 02:30:11;;;;;;;2.58;1.30;;;20.60;92.30;;;;;;5054959;28;20044;-71
2023/09/01 02:32:38;;;;;;;2.08;1.30;;;;;;;;;;5057087;28;20512;-71
2023/09/01 02:35:06;;;;;;;2.60;1.17;;;20.50;91.90;;;;;;5057708;28;20611;-67
2023/09/01 02:37:32;;;;;;;5.20;1.50;;;20.40;92.30;;;;;;5055954;28;20052;-69
2023/09/01 02:39:58;;;;;;;3.22;1.40;;;20.30;92.30;;;;;;5075034;28;20403;-70
2023/09/01 02:42:24;;;;;;;3.20;1.42;;;20.50;92.30;;;;;;5058195;28;20044;-69
2023/09/01 02:44:50;;;;;;;5.40;1.45;;;20.40;92.20;;;;;;5073354;28;20058;-68
2023/09/01 02:47:16;;;;;;;2.63;1.20;;;20.40;92.30;;;;;;5057518;28;20097;-69
2023/09/01 02:49:42;;;;;;;4.40;1.60;;;20.40;92.30;;;;;;5072484;28;20040;-72
2023/09/01 02:52:08;;;;;;;4.57;1.40;;;20.50;91.30;;;;;;5072178;28;20075;-71
2023/09/01 02:54:34;;;;;;;3.50;1.48;;;20.50;92.30;;;;;;5072277;28;20044;-70
2023/09/01 02:56:59;;;;;;;2.55;1.35;;;20.40;92.30;;;;;;5088444;28;20405;-69
2023/09/01 02:59:25;;;;;;;2.80;1.50;;;20.50;92.40;;;;;;5073143;28;20036;-66
2023/09/01 03:01:51;;;;;;;2.15;1.10;;;20.50;92.40;;;;;;5086017;28;20040;-71
2023/09/01 03:04:17;;;;;;;4.35;1.30;;;20.30;92.20;;;;;;5073704;28;20383;-69
2023/09/01 03:06:43;;;;;;;3.65;1.42;;;20.30;92.60;;;;;;5064283;28;20063;-71
2023/09/01 03:09:10;;;;;;;3.42;1.40;;;20.50;92.30;;;;;;5038102;28;20052;-70
2023/09/01 03:11:36;;;;;;;3.42;1.40;;;20.50;92.40;;;;;;5054390;28;20049;-63
2023/09/01 03:14:04;;;;;;;3.72;1.40;;;20.40;92.30;;;;;;5054358;28;20055;-65
2023/09/01 03:16:30;;;;;;;3.80;1.52;;;20.30;92.40;;;;;;5054324;28;20414;-68
2023/09/01 03:18:59;;;;;;;4.05;1.80;;;20.40;92.30;;;;;;5053793;28;20047;-67
2023/09/01 03:21:26;;;;;;;2.67;1.20;;;20.40;92.30;;;;;;5082785;28;20074;-67
2023/09/01 03:23:52;;;;;;;3.58;1.52;;;20.40;92.30;;;;;;5049685;28;20497;-67
2023/09/01 03:26:19;;;;;;;3.58;1.48;;;20.40;92.30;;;;;;5054748;28;20051;-69
2023/09/01 03:28:45;;;;;;;2.92;1.40;;;20.40;92.40;;;;;;5054259;28;20408;-68
2023/09/01 03:31:11;;;;;;;3.58;1.58;;;20.30;92.50;;;;;;5040272;28;20036;-67
2023/09/01 03:33:37;;;;;;;4.82;1.40;;;20.40;91.60;;;;;;5090697;28;20083;-67
2023/09/01 03:36:03;;;;;;;2.70;1.42;;;20.30;92.30;;;;;;5073771;28;20066;-67
2023/09/01 03:38:28;;;;;;;2.55;1.30;;;20.40;92.40;;;;;;5073946;28;20055;-67
2023/09/01 03:40:54;;;;;;;2.72;1.25;;;20.30;92.40;;;;;;5048563;28;20041;-66
2023/09/01 03:43:20;;;;;;;3.35;1.50;;;;;;;;;;5055290;28;20052;-71
2023/09/01 03:45:46;;;;;;;2.42;1.20;;;20.30;92.30;;;;;;5071184;28;20044;-66
2023/09/01 03:48:12;;;;;;;2.72;1.38;;;20.30;92.30;;;;;;5073804;28;20120;-67
2023/09/01 03:50:37;;;;;;;3.17;1.40;;;20.30;92.30;;;;;;5053804;28;20063;-70
2023/09/01 03:53:03;;;;;;;5.25;1.55;;;20.20;92.30;;;;;;5062995;28;20337;-67
2023/09/01 03:55:29;;;;;;;3.35;1.30;;;;;;;;;;5065604;28;20445;-68
2023/09/01 03:57:55;;;;;;;2.10;1.20;;;;;;;;;;5053584;28;20408;-67
2023/09/01 04:00:22;;;;;;;2.67;1.35;;;20.30;92.30;;;;;;5064199;28;20051;-67
2023/09/01 04:02:47;;;;;;;3.70;1.40;;;20.40;92.30;;;;;;5068479;28;20063;-66
2023/09/01 04:05:13;;;;;;;3.78;1.63;;;20.30;92.30;;;;;;5091498;28;20486;-69
2023/09/01 04:07:39;;;;;;;3.45;1.42;;;20.30;92.40;;;;;;5053534;28;20485;-69
2023/09/01 04:10:06;;;;;;;3.13;1.33;;;20.30;92.30;;;;;;5059684;28;20044;-70
2023/09/01 04:12:32;;;;;;;4.95;1.48;;;;;;;;;;5082356;28;20075;-68
2023/09/01 04:14:57;;;;;;;2.22;1.20;;;20.20;92.30;;;;;;5088458;28;20055;-65
2023/09/01 04:17:24;;;;;;;2.90;1.40;;;20.30;92.30;;;;;;5058295;28;20045;-67
2023/09/01 04:19:50;;;;;;;3.17;1.23;;;20.30;92.30;;;;;;5077408;28;20052;-67
2023/09/01 04:22:16;;;;;;;2.90;1.55;;;20.40;92.40;;;;;;5077310;28;20040;-65
2023/09/01 04:24:43;;;;;;;4.07;1.60;;;;;;;;;;5093710;28;20409;-64
2023/09/01 04:27:08;;;;;;;4.47;1.50;;;20.20;92.30;;;;;;5095365;28;20455;-67
2023/09/01 04:29:36;;;;;;;3.33;1.48;;;20.50;92.40;;;;;;5078287;28;20052;-67
2023/09/01 04:32:02;;;;;;;3.15;1.40;;;20.60;92.70;;;;;;5068708;28;20497;-67
2023/09/01 04:34:28;;;;;;;4.35;1.40;;;20.30;92.30;;;;;;5090721;28;20123;-65
2023/09/01 04:36:54;;;;;;;3.88;1.40;;;20.30;92.30;;;;;;5056706;28;20171;-65
2023/09/01 04:39:20;;;;;;;4.00;1.60;;;;;;;;;;5064885;28;20039;-67
2023/09/01 04:41:46;;;;;;;3.40;1.30;;;20.10;92.30;;;;;;5089629;28;20041;-66
2023/09/01 04:44:13;;;;;;;3.90;1.60;;;20.30;92.30;;;;;;5040925;28;20052;-66
2023/09/01 04:46:39;;;;;;;3.08;1.40;;;20.20;92.30;;;;;;5093393;28;20040;-67
2023/09/01 04:49:05;;;;;;;3.45;1.20;;;20.20;92.30;;;;;;5076541;28;20489;-65
2023/09/01 04:51:31;;;;;;;4.38;1.52;;;20.20;92.30;;;;;;5091357;28;20040;-65
2023/09/01 04:53:56;;;;;;;3.55;1.38;;;20.30;92.30;;;;;;5074814;28;20044;-65
2023/09/01 04:56:22;;;;;;;4.13;1.27;;;20.20;92.30;;;;;;5056263;28;20109;-65
2023/09/01 04:58:48;;;;;;;2.40;1.20;;;20.20;92.30;;;;;;5087755;28;20059;-64
2023/09/01 05:01:14;;;;;;;3.50;1.50;;;20.30;92.30;;;;;;5076373;28;20052;-65
2023/09/01 05:03:39;;;;;;;3.92;1.33;;;20.30;92.30;;;;;;5075982;28;20056;-65
2023/09/01 05:06:07;;;;;;;3.65;1.40;;;20.30;92.30;;;;;;5056678;28;20052;-63
2023/09/01 05:08:33;;;;;;;3.00;1.40;;;;;;;;;;5041240;28;20083;-62
2023/09/01 05:10:59;;;;;;;5.40;1.50;;;20.20;92.20;;;;;;5057099;28;20056;-72
2023/09/01 05:13:26;;;;;;;3.67;1.50;;;20.30;92.30;;;;;;5066304;28;20535;-71
2023/09/01 05:15:52;;;;;;;3.03;1.50;;;20.40;92.30;;;;;;5078945;28;20045;-68
2023/09/01 05:18:18;;;;;;;4.50;1.30;;;20.30;92.20;;;;;;5074063;28;20047;-72
2023/09/01 05:20:47;;;;;;;4.97;1.58;;;20.20;92.40;;;;;;5055988;28;20603;-71
2023/09/01 05:23:13;;;;;;;2.42;1.40;;;20.30;92.20;;;;;;5039983;28;20037;-70
2023/09/01 05:25:39;;;;;;;4.70;1.50;;;20.40;92.20;;;;;;5073878;28;20036;-66
2023/09/01 05:28:05;;;;;;;5.50;1.90;;;;;;;;;;5074955;28;20478;-70
2023/09/01 05:30:30;;;;;;;3.55;1.40;;;20.30;92.20;;;;;;5055444;28;20048;-71
2023/09/01 05:32:56;;;;;;;3.45;1.20;;;20.30;92.20;;;;;;5073888;28;20086;-70
2023/09/01 05:35:22;;;;;;;3.88;1.30;;;20.50;92.20;;;;;;5039619;28;20044;-69
2023/09/01 05:37:48;;;;;;;3.30;1.40;;;;;;;;;;5074786;28;20048;-66
2023/09/01 05:40:17;;;;;;;2.30;1.30;;;20.70;92.70;;;;;;5093405;28;20043;-71
2023/09/01 05:42:42;;;;;;;3.25;1.30;;;20.70;92.20;;;;;;5089267;28;20044;-69
2023/09/01 05:45:08;;;;;;;4.32;1.50;;;20.70;92.10;;;;;;5073398;28;20058;-68
2023/09/01 05:47:34;;;;;;;3.90;1.60;;;20.90;92.00;;;;;;5074506;28;20086;-70
2023/09/01 05:50:00;;;;;;;2.53;1.30;;;20.70;90.90;;;;;;5067157;28;20047;-69
2023/09/01 05:52:26;;;;;;;3.90;1.60;;;20.80;91.80;;;;;;5075375;28;20363;-68
2023/09/01 05:54:52;;;;;;;3.72;1.40;;;21.00;90.80;;;;;;5093530;28;20052;-67
2023/09/01 05:57:18;;;;;;;2.50;1.23;;;21.30;90.90;;;;;;5093723;28;20048;-72
2023/09/01 05:59:44;;;;;;;4.63;1.42;;;21.30;91.60;;;;;;5069801;28;20101;-69
2023/09/01 06:02:09;;;;;;;2.90;1.20;;;21.30;91.60;;;;;;5078604;28;20048;-68
2023/09/01 06:04:35;;;;;;;4.00;1.63;;;21.60;91.40;;;;;;5090502;28;20055;-67
2023/09/01 06:07:01;;;;;;;3.72;1.35;;;21.40;90.20;;;;;;5072953;28;20135;-68
2023/09/01 06:09:27;;;;;;;2.75;1.20;;;21.70;91.20;;;;;;5054960;28;20074;-71
2023/09/01 06:11:53;;;;;;;2.80;1.00;;;21.80;91.10;;;;;;5090325;28;20122;-70
2023/09/01 06:14:18;;;;;;;4.97;1.33;;;21.70;90.00;;;;;;5093323;28;20058;-70
2023/09/01 06:16:47;;;;;;;2.47;1.23;;;21.80;90.90;;;;;;5088651;28;20477;-68
2023/09/01 06:19:12;;;;;;;3.85;1.52;;;21.90;89.80;;;;;;5074872;28;20047;-68
2023/09/01 06:21:38;;;;;;;2.30;1.20;;;22.10;90.80;;;;;;5068343;28;20062;-68
2023/09/01 06:24:04;;;;;;;4.28;1.45;;;22.00;89.20;;;;;;5072911;28;20051;-68
2023/09/01 06:26:30;;;;;;;2.70;1.35;;;22.10;90.50;;;;;;5090331;28;20039;-69
2023/09/01 06:28:56;;;;;;;2.97;1.30;;;22.20;90.50;;;;;;5059997;28;20050;-66
2023/09/01 06:31:22;;;;;;;3.88;1.60;;;22.40;89.00;;;;;;5030693;28;20160;-67
2023/09/01 06:33:48;;;;;;;2.80;1.30;;;22.20;90.30;;;;;;5071620;28;20265;-68
2023/09/01 06:36:14;;;;;;;2.63;1.30;;;22.50;90.30;;;;;;5074541;28;20087;-70
2023/09/01 06:38:40;;;;;;;2.70;1.40;;;22.20;88.30;;;;;;5073914;28;20079;-71
2023/09/01 06:41:06;;;;;;;1.85;1.17;;;22.40;88.20;;;;;;5058327;28;20039;-71
2023/09/01 06:43:32;;;;;;;4.60;1.70;;;22.40;89.60;;;;;;5059472;28;20744;-70
2023/09/01 06:45:58;;;;;;;9.77;2.65;;;22.50;89.30;;;;;;5047771;28;20053;-72
2023/09/01 06:48:24;;;;;;;7.75;2.60;;;22.60;87.10;;;;;;5037711;28;20126;-69
2023/09/01 06:50:50;;;;;;;5.85;2.22;;;22.40;86.40;;;;;;5054733;28;20048;-66
2023/09/01 06:53:16;;;;;;;5.00;2.35;;;22.70;86.30;;;;;;5056467;28;20039;-73
2023/09/01 06:55:41;;;;;;;5.22;2.40;;;22.80;88.20;;;;;;5056151;28;20529;-74
2023/09/01 06:58:07;;;;;;;5.60;2.60;;;22.60;88.20;;;;;;5091180;28;20044;-71
2023/09/01 07:00:35;;;;;;;6.68;2.95;;;22.30;85.50;;;;;;5090736;28;20047;-68
2023/09/01 07:03:02;;;;;;;5.78;2.78;;;22.40;84.40;;;;;;5074702;28;20404;-70
2023/09/01 07:05:28;;;;;;;6.72;3.20;;;22.20;88.00;;;;;;5076275;28;20048;-73
2023/09/01 07:07:54;;;;;;;7.18;3.10;;;22.20;87.90;;;;;;5077139;28;20050;-67
2023/09/01 07:10:20;;;;;;;6.10;3.03;;;22.00;87.70;;;;;;5073747;28;20048;-69
2023/09/01 07:12:46;;;;;;;5.75;2.50;;;22.00;87.60;;;;;;5073955;28;20036;-73
2023/09/01 07:15:12;;;;;;;7.18;2.67;;;22.00;87.70;;;;;;5082551;28;20147;-69
2023/09/01 07:17:38;;;;;;;5.90;2.63;;;22.10;87.50;;;;;;5073138;28;20044;-70
2023/09/01 07:20:04;;;;;;;7.22;3.03;;;22.00;85.10;;;;;;5092200;28;20114;-71
2023/09/01 07:22:30;;;;;;;5.95;2.67;;;21.80;84.70;;;;;;5070567;28;20044;-71
2023/09/01 07:24:55;;;;;;;6.38;2.80;;;21.90;87.60;;;;;;5075171;28;20066;-70
2023/09/01 07:27:21;;;;;;;9.25;2.90;;;22.00;87.60;;;;;;5092142;28;20052;-70
2023/09/01 07:29:48;;;;;;;6.40;2.92;;;22.10;85.20;;;;;;5091775;28;20044;-69
2023/09/01 07:32:17;;;;;;;6.57;2.92;;;21.80;87.50;;;;;;5057284;28;20045;-66
2023/09/01 07:34:46;;;;;;;7.68;2.55;;;21.70;85.20;;;;;;5074233;28;20051;-66
2023/09/01 07:37:12;;;;;;;5.82;2.78;;;21.90;85.30;;;;;;5083526;28;20036;-74
2023/09/01 07:39:38;;;;;;;6.28;2.80;;;21.80;87.50;;;;;;5090042;28;20671;-62
2023/09/01 07:42:04;;;;;;;6.32;2.60;;;21.90;85.00;;;;;;5084032;28;20115;-62
2023/09/01 07:44:30;;;;;;;9.02;3.00;;;21.90;85.00;;;;;;5068144;28;20055;-64
2023/09/01 07:46:56;;;;;;;4.97;2.25;;;21.70;87.40;;;;;;5051087;28;20040;-64
2023/09/01 07:49:22;;;;;;;6.45;2.58;;;21.90;85.00;;;;;;5075534;28;20489;-69
2023/09/01 07:51:48;;;;;;;8.07;3.22;;;21.90;85.10;;;;;;5096113;28;20044;-72
2023/09/01 07:54:14;;;;;;;5.13;2.47;;;21.90;85.20;;;;;;5056675;28;20545;-62
2023/09/01 07:56:40;;;;;;;5.70;2.88;;;22.00;88.10;;;;;;5057330;28;20120;-65
2023/09/01 07:59:06;;;;;;;5.40;2.30;;;22.00;87.30;;;;;;5065336;28;20048;-69
2023/09/01 08:01:31;;;;;;;9.40;2.90;;;22.10;87.40;;;;;;5075885;28;20036;-66
2023/09/01 08:04:00;;;;;;;7.78;2.67;;;22.10;84.80;;;;;;5066582;28;20169;-61
2023/09/01 08:06:29;;;;;;;7.80;2.60;;;21.70;87.30;;;;;;5043781;28;20546;-62
2023/09/01 08:08:55;;;;;;;6.75;2.70;;;21.80;87.50;;;;;;5066890;28;20060;-67
2023/09/01 08:11:21;;;;;;;7.57;3.10;;;21.70;87.70;;;;;;5086454;28;20523;-63
2023/09/01 08:13:47;;;;;;;7.15;2.50;;;21.70;85.20;;;;;;5040317;28;20037;-63
2023/09/01 08:16:13;;;;;;;7.80;2.65;;;21.70;85.50;;;;;;5057883;28;20152;-61
2023/09/01 08:18:38;;;;;;;7.80;2.50;;;21.40;85.30;;;;;;5057067;28;20045;-63
2023/09/01 08:21:05;;;;;;;6.10;2.60;;;21.60;85.30;;;;;;5056913;28;20131;-62
2023/09/01 08:23:31;;;;;;;6.20;2.60;;;21.60;88.60;;;;;;5057222;28;20043;-65
2023/09/01 08:25:57;;;;;;;4.88;2.42;;;21.90;89.00;;;;;;5057256;28;20048;-63
2023/09/01 08:28:22;;;;;;;6.82;2.63;;;21.70;85.70;;;;;;5058262;28;20063;-66
2023/09/01 08:30:48;;;;;;;8.20;3.08;;;21.80;88.00;;;;;;5056520;28;20070;-65
2023/09/01 08:33:15;;;;;;;7.72;2.70;;;21.90;88.00;;;;;;5081922;28;20044;-62
2023/09/01 08:35:41;;;;;;;5.18;2.35;;;22.00;88.70;;;;;;5077712;28;20105;-62
2023/09/01 08:38:07;;;;;;;4.63;2.30;;;21.90;85.60;;;;;;5073617;28;20067;-63
2023/09/01 08:40:33;;;;;;;5.95;2.15;;;22.00;85.60;;;;;;5094735;28;20083;-64
2023/09/01 08:43:00;;;;;;;6.82;2.20;;;21.90;85.30;;;;;;5088321;28;20137;-66
2023/09/01 08:45:26;;;;;;;5.53;1.60;;;21.80;87.50;;;;;;5057082;28;20068;-66
2023/09/01 08:47:52;;;;;;;4.40;1.67;;;22.10;85.00;;;;;;5081392;28;20046;-66
2023/09/01 08:50:20;;;;;;;4.95;1.75;;;22.10;87.20;;;;;;5067501;28;20065;-63
2023/09/01 08:52:47;;;;;;;6.18;2.08;;;22.10;84.70;;;;;;5083543;28;20498;-63
2023/09/01 08:55:13;;;;;;;6.53;1.90;;;22.10;86.90;;;;;;5094286;28;20702;-65
2023/09/01 08:57:39;;;;;;;6.38;1.98;;;22.00;86.70;;;;;;5092691;28;20051;-72
2023/09/01 09:00:08;;;;;;;4.57;1.75;;;22.10;84.30;;;;;;5091700;28;20040;-74
2023/09/01 09:02:35;;;;;;;5.28;1.80;;;21.90;84.10;;;;;;5091370;28;20040;-71
2023/09/01 09:05:03;;;;;;;4.35;1.70;;;21.80;87.00;;;;;;5093807;28;20066;-72
2023/09/01 09:07:29;;;;;;;5.65;1.60;;;22.00;83.90;;;;;;5089335;28;20039;-70
2023/09/01 09:09:57;;;;;;;4.10;1.35;;;22.10;86.80;;;;;;5087688;28;20058;-71
2023/09/01 09:12:23;;;;;;;4.63;1.75;;;21.80;86.40;;;;;;5092007;28;20595;-70
2023/09/01 09:14:52;;;;;;;6.03;1.80;;;21.90;84.20;;;;;;5089552;28;20481;-73
2023/09/01 09:17:21;;;;;;;4.88;1.60;;;21.80;84.00;;;;;;5073641;28;20051;-61
2023/09/01 09:19:54;;;;;;;3.53;1.30;;;22.20;83.90;;;;;;5088088;28;20058;-68
2023/09/01 09:22:20;;;;;;;4.63;1.40;;;22.10;83.70;;;;;;5093508;28;20048;-62
2023/09/01 09:24:46;;;;;;;3.88;1.58;;;22.00;85.90;;;;;;5079677;28;20040;-68
2023/09/01 09:27:20;;;;;;;4.70;1.55;;;21.80;86.30;;;;;;5091077;28;20136;-71
2023/09/01 09:29:47;;;;;;;4.07;1.80;;;22.10;84.10;;;;;;5068888;28;20082;-71
2023/09/01 09:32:21;;;;;;;5.30;1.83;;;21.70;86.20;;;;;;5048073;28;20051;-63
2023/09/01 09:35:06;;;;;;;6.05;2.10;;;21.90;86.40;;;;;;5049711;28;20127;-68
2023/09/01 09:37:34;;;;;;;5.05;1.90;;;21.70;86.40;;;;;;5059013;28;20170;-62
2023/09/01 09:40:13;;;;;;;5.05;1.90;;;21.90;84.40;;;;;;5019884;28;20051;-63
2023/09/01 09:42:39;;;;;;;5.40;1.90;;;21.90;86.70;;;;;;5070790;28;20052;-63
2023/09/01 09:45:20;;;;;;;5.10;1.70;;;21.60;86.50;;;;;;5054761;28;20041;-74
2023/09/01 09:47:47;;;;;;;5.68;1.98;;;21.50;84.40;;;;;;5048222;28;20048;-65
2023/09/01 09:50:13;;;;;;;4.32;1.50;;;21.80;84.30;;;;;;5070278;28;20075;-63
2023/09/01 09:52:39;;;;;;;5.13;1.90;;;21.70;87.20;;;;;;5056541;28;20508;-71
2023/09/01 09:55:06;;;;;;;5.10;1.70;;;21.60;83.70;;;;;;5022391;28;20048;-66
2023/09/01 09:57:32;;;;;;;5.78;1.65;;;21.70;86.80;;;;;;5062624;28;20483;-66
2023/09/01 10:00:09;;;;;;;3.92;1.60;;;22.00;84.60;;;;;;5055594;28;20047;-61
2023/09/01 10:02:42;;;;;;;5.47;1.85;;;21.80;86.80;;;;;;5068869;28;20032;-64
2023/09/01 10:05:11;;;;;;;5.95;1.77;;;22.00;84.80;;;;;;5051215;28;20132;-61
2023/09/01 10:07:36;;;;;;;4.93;2.00;;;21.80;87.10;;;;;;5034984;28;20049;-63
2023/09/01 10:10:03;;;;;;;6.47;1.92;;;22.10;84.30;;;;;;5035059;28;20053;-61
2023/09/01 10:12:29;;;;;;;6.40;1.90;;;21.70;86.30;;;;;;5055558;28;20056;-61
2023/09/01 10:14:56;;;;;;;4.40;1.70;;;21.90;86.40;;;;;;5035029;28;20185;-64
2023/09/01 10:17:25;;;;;;;2.83;1.60;;;21.80;86.60;;;;;;5011320;28;20056;-62
2023/09/01 10:19:51;;;;;;;4.63;1.95;;;21.90;83.80;;;;;;5038714;28;20048;-63
2023/09/01 10:22:17;;;;;;;5.15;1.90;;;21.90;83.20;;;;;;5070002;28;20127;-61
2023/09/01 10:25:11;;;;;;;4.85;1.63;;;21.70;85.50;;;;;;5069521;28;20478;-62
2023/09/01 10:27:37;;;;;;;4.78;1.60;;;21.70;82.10;;;;;;5054614;28;20080;-69
2023/09/01 10:30:23;;;;;;;4.68;1.70;;;21.60;83.60;;;;;;5069712;28;20048;-63
2023/09/01 10:32:49;;;;;;;4.65;2.00;;;21.60;86.10;;;;;;5070859;28;20368;-70
2023/09/01 10:35:15;;;;;;;4.60;2.00;;;;;;;;;;5037740;28;20079;-62
2023/09/01 10:37:41;;;;;;;5.97;2.33;;;21.80;86.90;;;;;;5085222;28;20036;-68
2023/09/01 10:40:42;;;;;;;6.82;2.05;;;21.70;86.20;;;;;;5088344;28;20044;-67
2023/09/01 10:43:09;;;;;;;7.32;2.17;;;21.70;82.70;;;;;;5072144;28;20044;-69
2023/09/01 10:45:35;;;;;;;5.03;2.15;;;21.80;83.50;;;;;;5086862;28;20113;-62
2023/09/01 10:48:03;;;;;;;5.18;2.55;;;21.70;86.00;;;;;;5067889;28;20095;-67
2023/09/01 10:50:33;;;;;;;5.93;2.10;;;21.80;83.70;;;;;;5069531;28;20048;-66
2023/09/01 10:53:29;;;;;;;6.43;2.67;;;21.60;84.00;;;;;;5056140;28;20049;-67
2023/09/01 10:56:15;;;;;;;4.28;1.95;;;21.80;86.10;;;;;;5049565;28;20083;-71
2023/09/01 10:58:44;;;;;;;4.93;2.20;;;21.60;82.70;;;;;;5081251;28;20052;-67
2023/09/01 11:01:33;;;;;;;4.95;2.40;;;21.70;86.10;;;;;;5069996;28;20111;-66
2023/09/01 11:04:22;;;;;;;4.90;2.60;;;22.00;83.60;;;;;;5051108;28;20064;-64
2023/09/01 11:06:56;;;;;;;6.30;2.40;;;22.10;87.10;;;;;;5058338;28;20106;-67
2023/09/01 11:09:34;;;;;;;5.85;2.47;;;21.70;86.60;;;;;;5067915;28;20456;-67
2023/09/01 11:12:01;;;;;;;5.15;2.30;;;21.80;84.00;;;;;;5050923;28;20131;-67
2023/09/01 11:14:27;;;;;;;5.50;2.42;;;22.00;83.90;;;;;;5069604;28;20037;-62
2023/09/01 11:16:52;;;;;;;6.15;2.15;;;22.00;86.30;;;;;;5071856;28;20041;-64
2023/09/01 11:19:18;;;;;;;5.55;2.22;;;22.10;87.00;;;;;;5070765;28;20041;-70
2023/09/01 11:21:46;;;;;;;4.03;2.03;;;21.80;83.70;;;;;;5068903;28;20119;-62
2023/09/01 11:24:11;;;;;;;7.50;2.20;;;22.00;83.90;;;;;;5049686;28;20391;-62
2023/09/01 11:26:37;;;;;;;6.10;2.00;;;22.10;85.90;;;;;;5070105;28;20036;-61
2023/09/01 11:29:12;;;;;;;5.03;2.00;;;22.10;85.80;;;;;;5051635;28;20039;-66
2023/09/01 11:31:38;;;;;;;6.93;2.50;;;22.00;83.70;;;;;;5055980;28;20461;-66
2023/09/01 11:34:04;;;;;;;4.38;1.83;;;22.00;83.50;;;;;;5072375;28;20428;-66
2023/09/01 11:36:30;;;;;;;3.40;1.65;;;22.10;83.30;;;;;;5075583;28;20105;-62
2023/09/01 11:38:55;;;;;;;5.40;2.00;;;22.20;85.70;;;;;;5056926;28;20051;-62
2023/09/01 11:41:21;;;;;;;7.32;2.13;;;22.50;83.20;;;;;;5071575;28;20048;-64
2023/09/01 11:43:47;;;;;;;5.40;2.33;;;22.40;85.90;;;;;;5036909;28;20691;-66
2023/09/01 11:46:13;;;;;;;5.07;2.15;;;22.10;82.90;;;;;;5057738;28;20083;-66
2023/09/01 11:48:39;;;;;;;5.28;2.20;;;22.60;86.10;;;;;;5057651;28;20102;-65
2023/09/01 11:51:07;;;;;;;4.47;2.10;;;22.50;83.20;;;;;;5057658;28;20206;-67
2023/09/01 11:53:33;;;;;;;6.38;2.13;;;22.30;82.90;;;;;;5061140;28;20106;-65
2023/09/01 11:56:01;;;;;;;4.78;2.05;;;22.80;82.90;;;;;;5057344;28;20045;-67
2023/09/01 11:58:33;;;;;;;5.47;2.17;;;22.80;82.60;;;;;;5055151;28;20106;-65
2023/09/01 12:01:32;;;;;;;3.92;2.10;;;22.50;82.50;;;;;;5072600;28;20440;-64
2023/09/01 12:04:07;;;;;;;6.50;2.10;;;22.80;83.00;;;;;;5052354;28;20063;-67
2023/09/01 12:06:47;;;;;;;5.43;1.90;;;22.80;82.90;;;;;;5077134;28;20048;-68
2023/09/01 12:09:14;;;;;;;5.65;2.00;;;22.60;85.30;;;;;;5040458;28;20445;-65
2023/09/01 12:11:56;;;;;;;5.95;2.25;;;22.70;82.70;;;;;;5057140;28;20053;-63
2023/09/01 12:14:25;;;;;;;6.20;2.30;;;22.70;85.60;;;;;;5068768;28;20139;-62
2023/09/01 12:16:53;;;;;;;6.63;2.33;;;22.60;82.40;;;;;;5068921;28;20053;-64
2023/09/01 12:19:22;;;;;;;6.20;2.63;;;22.80;82.30;;;;;;5054229;28;20063;-70
2023/09/01 12:21:49;;;;;;;5.13;2.03;;;22.80;82.70;;;;;;5060422;28;20056;-64
2023/09/01 12:24:15;;;;;;;7.45;2.55;;;22.80;82.50;;;;;;5055176;28;20376;-65
2023/09/01 12:26:41;;;;;;;7.25;2.30;;;22.70;82.10;;;;;;5054858;28;20090;-64
2023/09/01 12:29:07;;;;;;;5.60;2.85;;;22.80;82.20;;;;;;5054876;28;20049;-66
2023/09/01 12:31:33;;;;;;;9.55;3.20;;;22.90;82.00;;;;;;5058695;28;20479;-65
2023/09/01 12:33:58;;;;;;;7.63;2.83;;;22.80;82.00;;;;;;5060318;28;20037;-64
2023/09/01 12:36:24;;;;;;;6.03;2.85;;;23.00;82.00;;;;;;5073758;28;20482;-68
2023/09/01 12:38:50;;;;;;;7.05;2.90;;;23.00;82.00;;;;;;5090338;28;20048;-62
2023/09/01 12:41:16;;;;;;;9.40;4.30;;;23.10;82.00;;;;;;5070004;28;20400;-62
2023/09/01 12:43:42;;;;;;;7.30;2.92;;;23.00;85.30;;;;;;5073276;28;20047;-62
2023/09/01 12:46:08;;;;;;;7.80;3.20;;;23.10;82.00;;;;;;5072713;28;20543;-66
2023/09/01 12:48:34;;;;;;;6.97;3.30;;;22.80;81.80;;;;;;5068342;28;20029;-63
2023/09/01 12:51:00;;;;;;;7.88;3.40;;;23.00;81.80;;;;;;5072817;28;20432;-63